Time;durP1;ratioP1;P1;durP2;ratioP2;P2;SDS_P1;SDS_P2;PMS_P1;PMS_P2;Temp;Humidity;BMP_temperature;BMP_pressure;BME280_temperature;BME280_humidity;BME280_pressure;Samples;Min_cycle;Max_cycle;Signal;HPM_P1;HPM_P2
2022/01/15 00:02:29;;;;;;;22.03;17.33;;;;;;;0.10;100.00;151395.34;4991597;28;20976;-81
2022/01/15 00:05:05;;;;;;;23.07;16.90;;;;;;;0.04;100.00;151379.94;4976470;28;20460;-81
2022/01/15 00:07:42;;;;;;;20.33;16.93;;;;;;;0.01;100.00;151373.53;4994243;28;20464;-82
2022/01/15 00:10:21;;;;;;;21.83;16.17;;;;;;;-0.01;100.00;151369.69;4993926;28;20974;-81
2022/01/15 00:12:59;;;;;;;19.87;16.67;;;;;;;-0.06;100.00;151356.88;4975898;28;20503;-81
2022/01/15 00:15:38;;;;;;;20.80;16.37;;;;;;;-0.08;100.00;151350.44;4993378;28;20927;-81
2022/01/15 00:18:15;;;;;;;22.23;16.30;;;;;;;-0.09;100.00;151349.16;4978757;28;20437;-81
2022/01/15 00:20:51;;;;;;;20.60;16.37;;;;;;;-0.12;100.00;151341.44;4988859;28;20457;-80
2022/01/15 00:23:26;;;;;;;23.27;15.80;;;;;;;-0.08;100.00;151351.69;4990908;28;20868;-81
2022/01/15 00:26:04;;;;;;;18.63;15.00;;;;;;;-0.10;100.00;151345.28;4994912;28;20461;-81
2022/01/15 00:28:39;;;;;;;19.50;15.77;;;;;;;-0.12;100.00;151341.44;4994734;28;20445;-80
2022/01/15 00:31:15;;;;;;;21.47;16.00;;;;;;;-0.13;100.00;151338.88;4978331;28;20643;-81
2022/01/15 00:33:50;;;;;;;19.30;15.77;;;;;;;-0.13;100.00;151338.88;4978656;28;20481;-81
2022/01/15 00:36:25;;;;;;;20.53;16.93;;;;;;;-0.12;100.00;151341.44;4993841;28;20946;-82
2022/01/15 00:39:01;;;;;;;20.97;16.50;;;;;;;-0.14;100.00;151336.34;4993360;28;20437;-81
2022/01/15 00:41:38;;;;;;;20.60;15.80;;;;;;;-0.21;100.00;151318.34;4992018;28;20473;-82
2022/01/15 00:44:14;;;;;;;19.53;15.30;;;;;;;-0.21;100.00;151318.34;4978348;28;20464;-81
2022/01/15 00:46:50;;;;;;;19.40;14.77;;;;;;;-0.22;100.00;151315.81;4977929;28;20448;-81
2022/01/15 00:49:25;;;;;;;18.87;16.23;;;;;;;-0.18;100.00;151326.03;4992250;28;20535;-81
2022/01/15 00:52:01;;;;;;;19.33;15.20;;;;;;;-0.22;100.00;151315.81;4998894;28;20466;-82
2022/01/15 00:54:36;;;;;;;21.17;15.70;;;;;;;-0.20;100.00;151320.91;4970892;28;20457;-81
2022/01/15 00:57:13;;;;;;;20.90;15.10;;;;;;;-0.20;100.00;151320.91;4982408;28;20537;-82
2022/01/15 00:59:50;;;;;;;18.13;15.37;;;;;;;-0.21;100.00;151318.34;5008681;28;20481;-82
2022/01/15 01:02:25;;;;;;;20.60;15.77;;;;;;;-0.23;100.00;151313.22;4993557;28;20990;-82
2022/01/15 01:05:01;;;;;;;17.27;15.30;;;;;;;-0.24;100.00;151309.38;4994236;28;20442;-82
2022/01/15 01:07:36;;;;;;;18.30;15.60;;;;;;;-0.23;100.00;151313.22;4995132;28;20503;-82
2022/01/15 01:10:31;;;;;;;19.40;14.40;;;;;;;-0.21;100.00;151318.34;4994283;28;20482;-82
2022/01/15 01:13:17;;;;;;;18.50;14.90;;;;;;;-0.17;100.00;151328.63;4993527;28;20449;-82
2022/01/15 01:24:31;;;;;;;19.83;14.57;;;;;;;-0.15;100.00;151332.47;4992080;28;20486;-82
2022/01/15 01:27:12;;;;;;;22.60;16.70;;;;;;;0.01;100.00;151373.53;4992695;28;20460;-82
2022/01/15 01:30:07;;;;;;;19.37;15.90;;;;;;;0.12;100.00;151400.47;4991625;28;20560;-82
2022/01/15 01:32:54;;;;;;;20.60;15.40;;;;;;;0.24;100.00;151431.28;4977865;28;20491;-82
2022/01/15 01:35:35;;;;;;;24.07;16.17;;;;;;;0.12;100.00;151400.47;4974441;28;20438;-82
2022/01/15 01:38:16;;;;;;;21.70;16.07;;;;;;;0.13;100.00;151403.06;4977073;28;20443;-82
2022/01/15 01:40:52;;;;;;;19.97;14.40;;;;;;;0.20;100.00;151421.00;4992902;28;20437;-82
2022/01/15 01:43:44;;;;;;;21.03;17.20;;;;;;;0.18;100.00;151417.19;4992354;28;20481;-82
2022/01/15 01:46:35;;;;;;;19.87;16.70;;;;;;;0.11;100.00;151399.16;4972146;28;20445;-82
2022/01/15 01:49:14;;;;;;;21.83;17.23;;;;;;;0.09;100.00;151392.75;4978707;28;20446;-82
2022/01/15 01:51:49;;;;;;;22.67;17.20;;;;;;;0.11;100.00;151397.94;4991029;28;20805;-82
2022/01/15 01:54:25;;;;;;;20.83;17.07;;;;;;;0.03;100.00;151378.63;5001094;28;20527;-82
2022/01/15 01:57:00;;;;;;;23.80;16.90;;;;;;;0.00;100.00;151370.97;4992170;28;20458;-82
2022/01/15 01:59:38;;;;;;;19.50;16.70;;;;;;;0.00;100.00;151372.22;4992189;28;20441;-82
2022/01/15 02:02:14;;;;;;;18.40;16.30;;;;;;;-0.04;100.00;151361.97;4976265;28;20569;-82
2022/01/15 02:04:50;;;;;;;18.77;16.30;;;;;;;-0.05;100.00;151359.41;4991270;28;20436;-82
2022/01/15 02:07:26;;;;;;;19.33;16.77;;;;;;;-0.05;100.00;151358.09;4976238;28;20455;-82
2022/01/15 02:10:01;;;;;;;22.60;17.70;;;;;;;-0.06;100.00;151355.56;4994028;28;20453;-82
2022/01/15 02:12:37;;;;;;;20.13;16.03;;;;;;;-0.05;100.00;151359.41;4991725;28;20484;-82
2022/01/15 02:15:14;;;;;;;19.23;15.90;;;;;;;0.10;100.00;151395.34;4992126;28;20450;-82
2022/01/15 02:17:52;;;;;;;22.77;17.50;;;;;;;0.10;100.00;151395.34;4976658;28;20895;-82
2022/01/15 02:20:59;;;;;;;17.20;14.40;;;;;;;0.03;100.00;151377.41;4978223;28;20446;-82
2022/01/15 02:23:34;;;;;;;18.47;16.47;;;;;;;-0.02;100.00;151367.09;4978674;28;20497;-82
2022/01/15 02:26:10;;;;;;;19.53;14.67;;;;;;;-0.10;100.00;151346.56;4972672;28;20630;-82
2022/01/15 02:28:51;;;;;;;20.10;16.17;;;;;;;-0.27;100.00;151301.69;4988283;28;20975;-82
2022/01/15 02:31:28;;;;;;;20.73;16.07;;;;;;;-0.36;100.00;151278.56;4980110;28;20756;-82
2022/01/15 02:34:05;;;;;;;19.87;16.40;;;;;;;-0.41;100.00;151265.75;4972546;28;20595;-82
2022/01/15 02:36:42;;;;;;;18.33;15.40;;;;;;;-0.41;100.00;151267.03;4963610;28;20449;-82
2022/01/15 02:39:18;;;;;;;17.60;13.97;;;;;;;-0.46;100.00;151254.22;4976973;28;20452;-82
2022/01/15 02:41:54;;;;;;;20.80;16.10;;;;;;;-0.45;100.00;151255.50;4991503;28;20477;-82
2022/01/15 02:44:33;;;;;;;18.80;14.97;;;;;;;-0.47;100.00;151251.63;5008368;28;20445;-82
2022/01/15 02:50:02;;;;;;;23.23;16.57;;;;;;;-0.53;100.00;151236.22;4991131;28;20434;-82
2022/01/15 02:52:39;;;;;;;20.80;15.70;;;;;;;-0.55;100.00;151229.81;4987683;28;20442;-82
2022/01/15 02:55:15;;;;;;;19.07;14.57;;;;;;;-0.61;100.00;151215.75;4990956;28;20440;-82
2022/01/15 02:57:50;;;;;;;19.10;15.80;;;;;;;-0.58;100.00;151223.41;4995599;28;20449;-82
2022/01/15 03:00:27;;;;;;;19.17;15.50;;;;;;;-0.68;100.00;151197.78;4973750;28;20557;-82
2022/01/15 03:03:02;;;;;;;18.70;15.20;;;;;;;-0.68;100.00;151197.78;4977493;28;20465;-82
2022/01/15 03:05:38;;;;;;;20.77;15.07;;;;;;;-0.70;100.00;151192.66;4986814;28;20457;-82
2022/01/15 03:08:15;;;;;;;19.27;16.10;;;;;;;-0.72;100.00;151187.53;4972127;28;20465;-81
2022/01/15 03:10:50;;;;;;;19.60;16.47;;;;;;;-0.75;100.00;151179.84;4979363;28;20461;-82
2022/01/15 03:13:26;;;;;;;19.50;15.43;;;;;;;-0.80;100.00;151168.31;4998074;28;20443;-82
2022/01/15 03:16:02;;;;;;;19.87;17.33;;;;;;;-0.80;100.00;151167.00;5010560;28;20922;-81
2022/01/15 03:18:37;;;;;;;22.10;16.00;;;;;;;-0.82;100.00;151161.91;4994735;28;20459;-82
2022/01/15 03:21:13;;;;;;;19.80;16.70;;;;;;;-0.84;100.00;151156.72;4992883;28;20829;-82
2022/01/15 03:23:50;;;;;;;19.67;16.93;;;;;;;-0.91;100.00;151140.09;4975921;28;20454;-81
2022/01/15 03:26:25;;;;;;;22.00;16.13;;;;;;;-0.91;100.00;151138.78;4986889;28;20486;-82
2022/01/15 03:29:01;;;;;;;20.87;15.90;;;;;;;-0.92;100.00;151137.50;4993649;28;20433;-82
2022/01/15 03:31:37;;;;;;;20.33;16.97;;;;;;;-0.95;100.00;151129.81;4980271;28;20459;-82
2022/01/15 03:34:13;;;;;;;19.80;14.77;;;;;;;-0.95;100.00;151128.50;4996327;28;20470;-82
2022/01/15 03:36:48;;;;;;;22.60;15.30;;;;;;;-0.98;100.00;151122.09;4995177;28;20464;-82
2022/01/15 03:39:25;;;;;;;17.40;14.17;;;;;;;-0.92;100.00;151137.50;4995192;28;20448;-82
2022/01/15 03:42:00;;;;;;;20.97;16.20;;;;;;;-0.98;100.00;151120.88;4979873;28;20456;-83
2022/01/15 03:44:36;;;;;;;20.73;15.40;;;;;;;-0.99;100.00;151118.28;4994631;28;20461;-82
2022/01/15 03:47:13;;;;;;;16.60;14.50;;;;;;;-1.00;100.00;151117.00;4994937;28;20449;-82
2022/01/15 03:49:48;;;;;;;16.50;14.20;;;;;;;-1.02;100.00;151111.88;4994841;28;20457;-81
2022/01/15 03:52:24;;;;;;;20.70;15.77;;;;;;;-1.02;100.00;151110.59;4995031;28;20817;-81
2022/01/15 03:55:01;;;;;;;16.33;14.53;;;;;;;-1.02;100.00;151111.88;4994957;28;20509;-82
2022/01/15 03:57:37;;;;;;;21.07;15.37;;;;;;;-1.02;100.00;151111.88;4994782;28;20448;-81
2022/01/15 04:00:16;;;;;;;17.17;14.00;;;;;;;-0.92;100.00;151137.50;5010330;28;20438;-81
2022/01/15 04:02:55;;;;;;;18.30;15.07;;;;;;;-0.94;100.00;151132.38;4982920;28;20473;-82
2022/01/15 04:05:32;;;;;;;20.07;15.37;;;;;;;-1.02;100.00;151111.88;4974222;28;20909;-82
2022/01/15 04:08:08;;;;;;;21.83;16.03;;;;;;;-1.04;100.00;151106.75;4994760;28;20612;-81
2022/01/15 04:10:45;;;;;;;18.60;15.40;;;;;;;-1.00;100.00;151115.69;4994569;28;20445;-81
2022/01/15 04:13:20;;;;;;;19.27;14.17;;;;;;;-1.00;100.00;151117.00;4996858;28;20449;-81
2022/01/15 04:15:56;;;;;;;17.50;13.50;;;;;;;-0.97;100.00;151123.41;4994761;28;20519;-82
2022/01/15 04:18:37;;;;;;;18.03;14.47;;;;;;;-0.97;100.00;151123.41;4992844;28;20441;-82
2022/01/15 04:21:13;;;;;;;18.73;14.53;;;;;;;-0.97;100.00;151123.41;4977809;28;20460;-82
2022/01/15 04:23:49;;;;;;;17.20;13.87;;;;;;;-1.03;100.00;151108.06;4993205;28;20554;-82
2022/01/15 04:26:27;;;;;;;17.23;14.67;;;;;;;-1.07;100.00;151097.78;4985742;28;20453;-82
2022/01/15 04:29:04;;;;;;;17.53;13.73;;;;;;;-1.11;100.00;151087.53;4979047;28;20440;-82
2022/01/15 04:31:47;;;;;;;19.67;14.20;;;;;;;-1.14;100.00;151081.13;4978563;28;20867;-82
2022/01/15 04:34:26;;;;;;;20.00;14.03;;;;;;;-1.14;100.00;151081.13;4992754;28;20429;-81
2022/01/15 04:37:08;;;;;;;18.57;13.90;;;;;;;-1.11;100.00;151087.53;4984710;28;20462;-82
2022/01/15 04:39:44;;;;;;;18.33;13.27;;;;;;;-1.08;100.00;151096.47;4974817;28;20451;-81
2022/01/15 04:42:25;;;;;;;15.43;13.50;;;;;;;-1.09;100.00;151092.66;4969861;28;20577;-81
2022/01/15 04:45:03;;;;;;;18.80;13.60;;;;;;;-1.08;100.00;151095.19;4978099;28;20539;-81
2022/01/15 04:47:40;;;;;;;18.90;13.77;;;;;;;-1.04;100.00;151105.47;4994888;28;20454;-82
2022/01/15 04:50:17;;;;;;;18.17;14.60;;;;;;;-1.01;100.00;151113.16;4992970;28;20533;-81
2022/01/15 04:52:52;;;;;;;18.07;13.67;;;;;;;-1.09;100.00;151093.94;4990411;28;20932;-82
2022/01/15 04:55:28;;;;;;;19.63;14.40;;;;;;;-1.05;100.00;151102.88;4974572;28;20536;-82
2022/01/15 04:58:06;;;;;;;18.20;13.63;;;;;;;-1.03;100.00;151109.28;4980338;28;20469;-81
2022/01/15 05:00:42;;;;;;;17.80;14.27;;;;;;;-1.06;100.00;151100.34;4990509;28;22252;-82
2022/01/15 05:03:17;;;;;;;18.60;14.07;;;;;;;-1.09;100.00;151092.66;4994064;28;20476;-82
2022/01/15 05:05:53;;;;;;;19.67;14.50;;;;;;;-1.14;100.00;151081.13;4992782;28;20951;-82
2022/01/15 05:08:28;;;;;;;18.80;14.33;;;;;;;-1.07;100.00;151099.06;4989613;28;20458;-82
2022/01/15 05:11:13;;;;;;;17.50;14.53;;;;;;;-1.01;100.00;151113.16;4991053;28;20450;-82
2022/01/15 05:13:49;;;;;;;16.60;12.63;;;;;;;-1.00;100.00;151115.69;4993610;28;20441;-82
2022/01/15 05:16:25;;;;;;;20.23;13.87;;;;;;;-1.02;100.00;151111.88;4991979;28;20476;-81
2022/01/15 05:19:01;;;;;;;16.57;13.60;;;;;;;-1.05;100.00;151102.88;4991655;28;20441;-82
2022/01/15 05:21:37;;;;;;;18.37;14.27;;;;;;;-1.07;100.00;151097.78;4986152;28;20451;-82
2022/01/15 05:24:12;;;;;;;17.47;13.73;;;;;;;-0.98;100.00;151120.88;4989764;28;20690;-81
2022/01/15 05:26:48;;;;;;;20.37;15.53;;;;;;;-0.97;100.00;151123.41;4979351;28;20457;-81
2022/01/15 05:29:25;;;;;;;18.00;14.70;;;;;;;-0.99;100.00;151118.28;4977695;28;20433;-82
2022/01/15 05:32:01;;;;;;;19.67;14.27;;;;;;;-0.98;100.00;151120.88;4991955;28;20869;-81
2022/01/15 05:34:37;;;;;;;18.40;13.47;;;;;;;-1.04;100.00;151105.47;4983046;28;20457;-81
2022/01/15 05:37:13;;;;;;;19.40;13.23;;;;;;;-1.01;100.00;151113.16;4991210;28;20447;-82
2022/01/15 05:39:48;;;;;;;19.27;14.23;;;;;;;-1.03;100.00;151109.28;4977113;28;20441;-82
2022/01/15 05:42:24;;;;;;;23.20;14.43;;;;;;;-0.94;100.00;151132.38;4976557;28;20787;-81
2022/01/15 05:45:01;;;;;;;19.73;15.00;;;;;;;-0.88;100.00;151147.78;4989118;28;20475;-81
2022/01/15 05:47:36;;;;;;;14.70;12.87;;;;;;;-0.79;100.00;151170.84;4983260;28;20429;-81
2022/01/15 05:50:12;;;;;;;20.70;16.13;;;;;;;-0.76;100.00;151177.25;4972378;28;20446;-81
2022/01/15 05:52:48;;;;;;;17.33;15.33;;;;;;;-0.69;100.00;151195.25;4985954;28;20879;-82
2022/01/15 05:55:23;;;;;;;20.07;15.53;;;;;;;-0.75;100.00;151179.84;4985530;28;20442;-81
2022/01/15 05:57:59;;;;;;;16.17;14.50;;;;;;;-0.78;100.00;151173.44;4991977;28;20483;-81
2022/01/15 06:00:37;;;;;;;17.67;14.17;;;;;;;-0.84;100.00;151156.72;4991842;28;20943;-81
2022/01/15 06:03:12;;;;;;;16.77;13.90;;;;;;;-0.99;100.00;151119.56;4989574;28;20470;-81
2022/01/15 06:05:48;;;;;;;19.47;15.10;;;;;;;-0.98;100.00;151120.88;4972691;28;20455;-81
2022/01/15 06:08:23;;;;;;;18.60;15.30;;;;;;;-0.82;100.00;151161.91;4990821;28;20466;-81
2022/01/15 06:10:59;;;;;;;21.50;15.73;;;;;;;-0.80;100.00;151167.00;4991073;28;20931;-81
2022/01/15 06:13:34;;;;;;;18.30;14.80;;;;;;;-0.87;100.00;151149.03;4967435;28;20434;-81
2022/01/15 06:16:12;;;;;;;16.10;13.47;;;;;;;-0.93;100.00;151133.69;4976443;28;20481;-82
2022/01/15 06:18:48;;;;;;;18.90;14.43;;;;;;;-0.95;100.00;151128.50;4990057;28;20445;-81
2022/01/15 06:21:23;;;;;;;17.33;15.40;;;;;;;-0.99;100.00;151119.56;4990815;28;20453;-81
2022/01/15 06:23:59;;;;;;;20.17;15.40;;;;;;;-1.07;100.00;151099.06;4988168;28;20466;-81
2022/01/15 06:26:35;;;;;;;19.17;15.43;;;;;;;-1.10;100.00;151090.06;4991925;28;20449;-82
2022/01/15 06:29:10;;;;;;;22.10;15.70;;;;;;;-1.11;100.00;151087.53;4991863;28;20473;-81
2022/01/15 06:31:47;;;;;;;18.60;15.10;;;;;;;-1.26;100.00;151050.34;4991207;28;20444;-82
2022/01/15 06:34:23;;;;;;;18.50;14.93;;;;;;;-1.33;100.00;151033.69;4985850;28;20457;-81
2022/01/15 06:36:58;;;;;;;16.33;13.87;;;;;;;-1.43;100.00;151006.78;4992300;28;20453;-81
2022/01/15 06:39:34;;;;;;;18.40;14.37;;;;;;;-1.42;100.00;151010.63;4976381;28;20494;-81
2022/01/15 06:42:10;;;;;;;20.67;16.17;;;;;;;-1.39;100.00;151017.03;4989888;28;20489;-82
2022/01/15 06:44:46;;;;;;;18.70;15.07;;;;;;;-1.36;100.00;151024.72;4991133;28;20461;-82
2022/01/15 06:47:23;;;;;;;20.40;16.10;;;;;;;-1.36;100.00;151026.00;4977036;28;20473;-82
2022/01/15 06:50:04;;;;;;;20.80;17.30;;;;;;;-1.37;100.00;151023.44;4993750;28;20450;-82
2022/01/15 06:52:39;;;;;;;18.40;15.90;;;;;;;-1.37;100.00;151023.44;4987603;28;20445;-82
2022/01/15 06:55:15;;;;;;;21.70;16.17;;;;;;;-1.36;100.00;151024.72;4973268;28;20443;-82
2022/01/15 06:57:51;;;;;;;20.43;16.10;;;;;;;-1.36;100.00;151026.00;4991856;28;20442;-82
2022/01/15 07:00:26;;;;;;;18.73;15.47;;;;;;;-1.37;100.00;151023.44;4971813;28;20478;-82
2022/01/15 07:03:03;;;;;;;21.33;17.53;;;;;;;-1.37;100.00;151023.44;4998303;28;20448;-82
2022/01/15 07:05:39;;;;;;;18.43;15.60;;;;;;;-1.15;100.00;151077.25;5009813;28;20457;-81
2022/01/15 07:08:15;;;;;;;23.00;17.20;;;;;;;-1.05;100.00;151102.88;4980174;28;20440;-82
2022/01/15 07:10:50;;;;;;;24.10;18.50;;;;;;;-1.04;100.00;151106.75;4994273;28;20557;-82
2022/01/15 07:13:26;;;;;;;22.17;16.20;;;;;;;-1.05;100.00;151104.19;4976738;28;20487;-82
2022/01/15 07:16:02;;;;;;;19.80;14.50;;;;;;;-1.03;100.00;151109.28;5010597;28;20481;-82
2022/01/15 07:18:39;;;;;;;24.63;16.37;;;;;;;-1.02;100.00;151110.59;4979531;28;20445;-82
2022/01/15 07:21:15;;;;;;;18.20;14.60;;;;;;;-0.87;100.00;151149.03;4991413;28;20455;-82
2022/01/15 07:23:50;;;;;;;21.20;14.93;;;;;;;-0.80;100.00;151167.00;4993204;28;20473;-82
2022/01/15 07:26:26;;;;;;;16.70;14.30;;;;;;;-0.79;100.00;151169.56;4993501;28;20564;-82
2022/01/15 07:29:01;;;;;;;20.47;15.30;;;;;;;-0.77;100.00;151175.97;4994027;28;20940;-82
2022/01/15 07:31:37;;;;;;;26.07;17.20;;;;;;;-0.73;100.00;151184.94;4974958;28;20464;-82
2022/01/15 07:34:14;;;;;;;22.63;16.90;;;;;;;-0.65;100.00;151206.75;4991837;28;20447;-82
2022/01/15 07:36:53;;;;;;;21.93;16.50;;;;;;;-0.55;100.00;151231.13;4970498;28;20933;-82
2022/01/15 07:39:28;;;;;;;20.33;17.10;;;;;;;-0.46;100.00;151254.22;4966253;28;20440;-82
2022/01/15 07:42:05;;;;;;;20.57;17.50;;;;;;;-0.42;100.00;151264.47;4988318;28;20458;-81
2022/01/15 07:44:41;;;;;;;29.60;22.90;;;;;;;-0.37;100.00;151277.28;4993455;28;20457;-82
2022/01/15 07:47:17;;;;;;;23.90;18.60;;;;;;;-0.39;100.00;151272.16;4992656;28;20441;-81
2022/01/15 07:49:54;;;;;;;27.50;21.07;;;;;;;-0.35;100.00;151282.44;4993884;28;20452;-81
2022/01/15 07:52:30;;;;;;;24.37;19.17;;;;;;;-0.29;100.00;151297.81;4977895;28;20441;-81
2022/01/15 07:55:07;;;;;;;25.23;20.70;;;;;;;-0.18;100.00;151326.03;4975135;28;20543;-81
2022/01/15 07:57:44;;;;;;;33.43;27.10;;;;;;;-0.08;100.00;151350.44;4972810;28;20440;-81
2022/01/15 08:00:21;;;;;;;28.20;22.10;;;;;;;0.02;100.00;151376.09;4997702;28;20445;-80
2022/01/15 08:02:57;;;;;;;27.40;21.00;;;;;;;0.10;100.00;151395.34;4997931;28;20856;-82
2022/01/15 08:05:34;;;;;;;36.80;27.13;;;;;;;0.17;100.00;151413.28;4974760;28;20883;-81
2022/01/15 08:08:09;;;;;;;26.77;22.50;;;;;;;0.20;100.00;151421.00;5006427;28;20528;-81
2022/01/15 08:10:45;;;;;;;22.40;18.00;;;;;;;0.18;100.00;151415.88;4990568;28;20468;-81
2022/01/15 08:13:21;;;;;;;23.60;17.47;;;;;;;0.14;100.00;151405.59;5002086;28;20842;-81
2022/01/15 08:15:57;;;;;;;22.67;17.40;;;;;;;0.14;100.00;151405.59;4993945;28;20478;-81
2022/01/15 08:18:34;;;;;;;22.17;16.90;;;;;;;0.20;100.00;151421.00;4959174;28;20901;-81
2022/01/15 08:21:11;;;;;;;29.40;20.23;;;;;;;0.21;100.00;151423.59;4984680;28;20447;-81
2022/01/15 08:23:46;;;;;;;24.47;19.00;;;;;;;0.23;100.00;151430.00;5006431;28;20556;-81
2022/01/15 08:26:22;;;;;;;20.63;18.03;;;;;;;0.26;100.00;151437.72;4976717;28;20441;-81
2022/01/15 08:28:59;;;;;;;19.20;16.87;;;;;;;0.28;100.00;151441.53;4995657;28;20449;-82
2022/01/15 08:31:34;;;;;;;25.70;17.43;;;;;;;0.31;100.00;151450.53;4975674;28;20469;-82
2022/01/15 08:34:10;;;;;;;23.27;18.50;;;;;;;0.34;100.00;151456.97;4992634;28;20434;-81
2022/01/15 08:36:47;;;;;;;19.97;17.07;;;;;;;0.34;100.00;151456.97;4990190;28;20935;-81
2022/01/15 08:39:22;;;;;;;23.53;18.60;;;;;;;0.35;100.00;151460.78;4990067;28;20452;-81
2022/01/15 08:41:58;;;;;;;21.30;17.90;;;;;;;0.38;100.00;151467.19;4992594;28;20488;-81
2022/01/15 08:44:34;;;;;;;22.93;17.80;;;;;;;0.39;100.00;151469.78;4986110;28;20471;-81
2022/01/15 08:47:10;;;;;;;21.97;19.10;;;;;;;0.41;100.00;151474.91;4976061;28;20456;-81
2022/01/15 08:49:46;;;;;;;23.77;17.00;;;;;;;0.46;100.00;151489.03;4976899;28;20541;-80
2022/01/15 08:52:23;;;;;;;20.37;18.10;;;;;;;0.53;100.00;151505.75;4982500;28;20460;-80
2022/01/15 08:54:59;;;;;;;21.70;18.50;;;;;;;0.64;100.00;151533.94;4982824;28;20444;-79
2022/01/15 08:57:35;;;;;;;23.00;19.43;;;;;;;0.74;100.00;151559.66;4987366;28;20460;-80
2022/01/15 09:00:14;;;;;;;24.43;19.83;;;;;;;0.76;100.00;151564.81;4973119;28;20528;-79
2022/01/15 09:02:50;;;;;;;25.53;19.13;;;;;;;0.85;100.00;151587.88;4979353;28;20428;-80
2022/01/15 09:05:26;;;;;;;23.30;19.47;;;;;;;0.84;100.00;151584.06;4992347;28;20468;-79
2022/01/15 09:08:04;;;;;;;22.37;19.27;;;;;;;0.80;100.00;151573.75;4982021;28;20985;-80
2022/01/15 09:10:41;;;;;;;23.47;18.87;;;;;;;0.77;100.00;151567.34;4966389;28;20495;-80
2022/01/15 09:13:18;;;;;;;23.73;19.83;;;;;;;0.80;100.00;151575.03;4986301;28;20445;-80
2022/01/15 09:15:53;;;;;;;20.97;18.67;;;;;;;0.85;100.00;151587.88;4990394;28;20574;-80
2022/01/15 09:18:29;;;;;;;28.60;19.60;;;;;;;0.92;100.00;151605.91;4992667;28;20448;-80
2022/01/15 09:21:05;;;;;;;24.70;19.27;;;;;;;1.04;100.00;151636.69;5005319;28;20954;-80
2022/01/15 09:23:42;;;;;;;23.23;18.63;;;;;;;0.98;100.00;151620.03;5004563;28;20499;-81
2022/01/15 09:26:22;;;;;;;24.13;18.70;;;;;;;1.00;100.00;151625.16;4974323;28;20457;-80
2022/01/15 09:31:51;;;;;;;24.70;19.97;;;;;;;0.99;100.00;151622.56;4975818;28;20943;-81
2022/01/15 09:34:27;;;;;;;24.60;19.37;;;;;;;1.01;100.00;151628.97;4991577;28;20459;-80
2022/01/15 09:37:03;;;;;;;25.97;20.30;;;;;;;1.03;100.00;151634.09;4992533;28;21001;-80
2022/01/15 09:39:40;;;;;;;24.67;18.80;;;;;;;1.15;100.00;151664.97;4977316;28;20442;-80
2022/01/15 09:42:16;;;;;;;22.60;19.40;;;;;;;1.13;100.00;151659.84;4994253;28;20449;-80
2022/01/15 09:44:53;;;;;;;24.73;19.93;;;;;;;1.09;100.00;151648.25;4963635;28;20463;-81
2022/01/15 09:47:29;;;;;;;23.03;20.07;;;;;;;1.11;100.00;151654.66;4988218;28;20452;-80
2022/01/15 09:50:07;;;;;;;25.30;21.20;;;;;;;1.12;100.00;151657.25;4993177;28;20906;-80
2022/01/15 09:52:43;;;;;;;25.17;20.10;;;;;;;1.22;100.00;151681.63;4973743;28;20453;-81
2022/01/15 09:55:21;;;;;;;25.97;21.87;;;;;;;1.21;100.00;151680.41;4996218;28;20792;-80
2022/01/15 09:57:57;;;;;;;27.60;21.80;;;;;;;1.29;100.00;151698.38;4974782;28;20475;-81
2022/01/15 10:00:47;;;;;;;26.20;21.20;;;;;;;1.37;100.00;151718.91;4991479;28;20455;-80
2022/01/15 10:03:23;;;;;;;26.20;22.30;;;;;;;1.37;100.00;151718.91;4977341;28;20467;-80
2022/01/15 10:06:04;;;;;;;29.33;23.97;;;;;;;1.36;100.00;151716.31;4977501;28;21699;-80
2022/01/15 10:08:40;;;;;;;28.57;22.67;;;;;;;1.36;100.00;151717.63;4989307;28;20478;-80
2022/01/15 10:11:41;;;;;;;26.90;23.90;;;;;;;1.41;100.00;151730.47;4983703;28;20846;-80
2022/01/15 10:14:25;;;;;;;32.77;23.70;;;;;;;1.51;100.00;151756.16;4979059;28;20450;-80
2022/01/15 10:17:01;;;;;;;29.47;25.30;;;;;;;1.46;100.00;151742.00;4973536;28;20484;-80
2022/01/15 10:19:38;;;;;;;31.00;23.03;;;;;;;1.46;100.00;151743.31;4993813;28;20451;-80
2022/01/15 10:22:16;;;;;;;26.57;22.87;;;;;;;1.56;100.00;151769.00;4970075;28;20454;-81
2022/01/15 10:24:55;;;;;;;24.47;21.97;;;;;;;1.54;99.65;151762.56;4974138;28;20469;-80
2022/01/15 10:27:34;;;;;;;26.60;21.30;;;;;;;1.61;99.45;151780.59;5002649;28;20463;-80
2022/01/15 10:30:11;;;;;;;24.77;21.33;;;;;;;1.68;99.29;151798.56;5001940;28;20650;-80
2022/01/15 10:32:54;;;;;;;25.43;21.30;;;;;;;1.67;99.30;151795.97;4989293;28;20520;-80
2022/01/15 10:35:33;;;;;;;26.47;21.40;;;;;;;1.66;98.29;151794.75;4975759;28;20437;-81
2022/01/15 10:38:11;;;;;;;25.40;21.80;;;;;;;1.71;98.54;151806.28;5002398;28;20834;-79
2022/01/15 10:40:47;;;;;;;25.77;19.63;;;;;;;1.69;98.60;151802.47;5010357;28;20570;-80
2022/01/15 10:43:33;;;;;;;26.40;20.93;;;;;;;1.90;98.63;151853.84;4997782;28;20453;-80
2022/01/15 10:46:08;;;;;;;25.90;19.90;;;;;;;1.86;98.15;151844.84;4991233;28;20466;-80
2022/01/15 10:48:45;;;;;;;24.30;19.77;;;;;;;1.89;97.25;151852.56;4987723;28;20460;-80
2022/01/15 10:51:23;;;;;;;24.60;20.90;;;;;;;1.87;96.70;151847.41;4989373;28;20448;-80
2022/01/15 10:54:03;;;;;;;25.63;20.40;;;;;;;1.95;95.93;151866.69;4996492;28;20462;-80
2022/01/15 10:56:38;;;;;;;26.07;20.63;;;;;;;1.92;95.67;151858.97;5004131;28;20549;-80
2022/01/15 10:59:15;;;;;;;23.40;19.90;;;;;;;2.01;96.03;151882.13;4957090;28;20481;-80
2022/01/15 11:01:51;;;;;;;27.40;20.70;;;;;;;2.04;96.60;151891.09;4986497;28;20861;-80
2022/01/15 11:04:34;;;;;;;29.03;22.10;;;;;;;2.05;96.16;151892.41;4970327;28;20833;-80
2022/01/15 11:07:11;;;;;;;25.43;19.97;;;;;;;2.03;95.11;151888.56;4974995;28;20438;-80
2022/01/15 11:09:50;;;;;;;32.70;21.43;;;;;;;2.10;95.11;151906.53;4990332;28;20449;-80
2022/01/15 11:12:27;;;;;;;24.77;19.90;;;;;;;2.14;95.30;151916.84;4976034;28;20440;-80
2022/01/15 11:15:06;;;;;;;25.93;20.77;;;;;;;2.20;95.62;151932.25;4976172;28;20442;-80
2022/01/15 11:17:42;;;;;;;25.70;21.57;;;;;;;2.21;94.56;151933.53;4997144;28;20477;-80
2022/01/15 11:20:21;;;;;;;28.07;21.27;;;;;;;2.17;94.51;151924.53;4992336;28;20812;-80
2022/01/15 11:22:56;;;;;;;24.97;20.20;;;;;;;2.24;94.44;151941.25;4993255;28;20516;-80
2022/01/15 11:25:32;;;;;;;27.17;19.77;;;;;;;2.31;94.72;151960.53;4990692;28;21035;-80
2022/01/15 11:28:07;;;;;;;24.90;21.03;;;;;;;2.36;94.61;151972.09;4977541;28;20467;-80
2022/01/15 11:30:45;;;;;;;23.90;20.27;;;;;;;2.52;94.46;152011.97;4997465;28;20462;-81
2022/01/15 11:33:21;;;;;;;24.67;20.13;;;;;;;2.51;93.18;152010.72;4993349;28;20794;-80
2022/01/15 11:35:57;;;;;;;25.33;22.43;;;;;;;2.54;93.74;152017.16;4990916;28;20442;-80
2022/01/15 11:38:41;;;;;;;31.17;22.57;;;;;;;2.63;93.62;152040.25;4993609;28;20544;-80
2022/01/15 11:41:37;;;;;;;30.33;21.20;;;;;;;2.61;93.48;152035.13;4993731;28;20450;-80
2022/01/15 11:44:14;;;;;;;30.90;23.07;;;;;;;2.60;93.49;152032.53;4996226;28;20585;-80
2022/01/15 11:46:54;;;;;;;28.30;23.30;;;;;;;2.59;93.44;152030.00;4994258;28;20511;-80
2022/01/15 11:49:38;;;;;;;27.73;22.93;;;;;;;2.58;93.05;152027.41;4979026;28;20804;-80
2022/01/15 11:52:41;;;;;;;28.97;23.37;;;;;;;2.58;92.31;152027.41;4981038;28;20441;-80
2022/01/15 11:55:24;;;;;;;31.10;25.77;;;;;;;2.61;92.29;152035.13;4991872;28;20486;-80
2022/01/15 11:58:00;;;;;;;28.23;23.87;;;;;;;2.66;91.28;152048.00;4998923;28;20856;-80
2022/01/15 12:00:43;;;;;;;30.57;24.50;;;;;;;2.65;91.15;152045.44;4983092;28;20811;-80
2022/01/15 12:03:21;;;;;;;30.17;23.70;;;;;;;2.71;91.78;152060.84;4994242;28;20459;-80
2022/01/15 12:06:01;;;;;;;29.50;22.97;;;;;;;2.70;92.20;152058.31;5009561;28;20732;-80
2022/01/15 12:08:36;;;;;;;29.87;24.63;;;;;;;2.65;91.35;152046.69;4993137;28;20441;-80